Plumtree, NC (28664)

8:40 AM EDT on August 29, 2015 (GMT -0400)
Bakersville | | Change Station
CLOSE
Current Station
Personal Weather Station
Location: Bakersville, NC
Elevation: 2700 ft
Nearby Weather Stations

Elev 2700 ft 35.99 °N, 82.13 °W | Updated 11 seconds ago

Partly Cloudy
Partly Cloudy
59.6 °F
Feels Like 59.6 °F
N
0.0
Wind Variable Wind from North
Gusts 12.7 mph

Today
High -- | Low -- °F
--% Chance of Precip.
Yesterday
High -- | Low -- °F
Precip. -- in
6:57 AM 8:00 PM
Full, 100% visible
Pressure 30.34 in
Visibility 10.0 miles
Clouds Scattered Clouds 7000 ft
Dew Point 55 °F
Humidity 84%
Rainfall 0.00 in
Snow Depth Not available.
UV 1 out of 12
Pollen 8.40 out of 12
Air Quality Not available.
Flu Activity Not available.
METAR KTNB 291215Z AUTO 00000KT 10SM SCT070 13/13 A3034 RMK AO2 T01340131
Pressure 30.34 in
Visibility 10.0 miles
Clouds Scattered Clouds 7000 ft
Dew Point 55 °F
Humidity 84%
Rainfall 0.00 in
Snow Depth Not available.
UV 1 out of 12
Pollen 8.40 out of 12
Air Quality Not available.
Flu Activity Not available.
METAR KTNB 291215Z AUTO 00000KT 10SM SCT070 13/13 A3034 RMK AO2 T01340131

10-Day Weather Forecast

×

Almanac

Astronomy

Aug. 29, 2015 Rise Set
Actual Time
Civil Twilight
Nautical Twilight
Astronomical Twilight
Moon
Length of Visible Light
Length of Day
Tomorrow will be .
, % of the Moon is Illuminated

Today's Extremes

State Highs State Lows

Community

WunderPhotos

Upload Photos

1,850,677 photos uploaded!

WunderBlogs® & News

Nearby

Air Quality

  Air Quality AQ Index Pollutant
Not available.

Snow Depth

Station Depth Elevation

Earthquake Activity

City Distance Mag. Time & Date
Minimum magnitude displayed is 2.5.

Coastal Water Temperatures

Place Temperature

Stations

Nearby Weather Stations

Station Location Temp. Windchill Dew Point Humidity Wind Precip. Elev Updated Type